Time;durP1;ratioP1;P1;durP2;ratioP2;P2;SDS_P1;SDS_P2;PMS_P1;PMS_P2;Temp;Humidity;BMP_temperature;BMP_pressure;BME280_temperature;BME280_humidity;BME280_pressure;Samples;Min_cycle;Max_cycle;Signal;HPM_P1;HPM_P2
2023/08/12 00:01:21;;;;;;;8.63;5.30;;;14.40;60.30;;;;;;5052301;28;20708;-79
2023/08/12 00:03:49;;;;;;;8.63;5.40;;;14.80;59.70;;;;;;5033365;28;20217;-81
2023/08/12 00:06:16;;;;;;;11.33;5.00;;;14.80;58.30;;;;;;5051793;28;20184;-78
2023/08/12 00:08:43;;;;;;;10.73;6.03;;;15.00;58.10;;;;;;5046967;28;20192;-82
2023/08/12 00:11:11;;;;;;;10.40;5.50;;;15.10;57.50;;;;;;5051036;28;20217;-82
2023/08/12 00:13:38;;;;;;;9.67;4.20;;;15.20;57.50;;;;;;5052533;28;20211;-81
2023/08/12 00:16:05;;;;;;;8.07;4.30;;;15.30;56.50;;;;;;5053574;28;20654;-78
2023/08/12 00:18:36;;;;;;;8.70;4.80;;;15.50;55.40;;;;;;5051446;28;20176;-77
2023/08/12 00:21:10;;;;;;;8.67;4.70;;;15.50;55.00;;;;;;5050441;28;20203;-81
2023/08/12 00:23:42;;;;;;;10.73;4.60;;;15.60;54.50;;;;;;5049962;28;20191;-79
2023/08/12 00:26:10;;;;;;;6.83;4.30;;;15.60;54.50;;;;;;5046763;28;20245;-80
2023/08/12 00:28:38;;;;;;;9.23;4.50;;;15.80;53.90;;;;;;5052299;28;20680;-80
2023/08/12 00:31:05;;;;;;;8.30;4.60;;;15.90;53.90;;;;;;5050468;28;20260;-79
2023/08/12 00:33:33;;;;;;;9.63;4.50;;;15.90;53.90;;;;;;5050144;28;20181;-80
2023/08/12 00:36:00;;;;;;;10.50;4.50;;;16.00;53.70;;;;;;5049049;28;20180;-80
2023/08/12 00:38:28;;;;;;;9.73;4.50;;;16.10;52.70;;;;;;5052196;28;20627;-80
2023/08/12 00:40:56;;;;;;;8.33;4.43;;;16.20;53.20;;;;;;5047824;28;20574;-79
2023/08/12 00:43:23;;;;;;;11.63;4.73;;;16.20;52.20;;;;;;5054293;28;20189;-79
2023/08/12 00:45:51;;;;;;;9.77;4.70;;;16.20;52.50;;;;;;5052000;28;20274;-77
2023/08/12 00:48:19;;;;;;;8.27;4.90;;;16.20;51.70;;;;;;5050234;28;20224;-81
2023/08/12 00:50:50;;;;;;;7.20;4.40;;;16.30;51.90;;;;;;5044005;28;20177;-76
2023/08/12 00:53:17;;;;;;;9.50;4.80;;;16.30;52.00;;;;;;5046493;28;20194;-78
2023/08/12 00:55:44;;;;;;;7.40;4.73;;;16.40;52.20;;;;;;5050207;28;20181;-80
2023/08/12 00:58:12;;;;;;;10.77;4.90;;;16.50;51.90;;;;;;5053240;28;20241;-77
2023/08/12 01:00:40;;;;;;;10.93;4.10;;;16.60;51.90;;;;;;5051732;28;20176;-78
2023/08/12 01:03:07;;;;;;;10.47;4.93;;;16.80;50.90;;;;;;5051490;28;20202;-77
2023/08/12 01:05:35;;;;;;;10.60;4.90;;;17.00;50.00;;;;;;5052979;28;20546;-79
2023/08/12 01:08:02;;;;;;;9.83;4.90;;;17.20;49.90;;;;;;5052030;28;20223;-80
2023/08/12 01:10:37;;;;;;;10.37;5.10;;;17.00;49.40;;;;;;5052575;28;20186;-85
2023/08/12 01:13:18;;;;;;;12.97;4.70;;;17.20;49.50;;;;;;5047325;28;20179;-82
2023/08/12 01:15:46;;;;;;;7.70;4.13;;;17.30;49.60;;;;;;5048537;28;20677;-80
2023/08/12 01:18:15;;;;;;;10.13;3.80;;;17.50;48.90;;;;;;5052470;28;20230;-81
2023/08/12 01:20:43;;;;;;;9.87;4.10;;;17.60;48.60;;;;;;5045878;28;20229;-80
2023/08/12 01:23:12;;;;;;;11.43;4.60;;;17.60;48.30;;;;;;5049315;28;20190;-81
2023/08/12 01:25:39;;;;;;;7.73;4.53;;;17.80;48.50;;;;;;5044061;28;20280;-87
2023/08/12 01:28:07;;;;;;;5.73;3.47;;;18.00;47.60;;;;;;5032866;28;20247;-76
2023/08/12 01:30:51;;;;;;;8.07;3.70;;;18.10;46.60;;;;;;5049382;28;20188;-79
2023/08/12 01:33:43;;;;;;;10.60;3.83;;;18.10;46.30;;;;;;5035823;28;20630;-80
2023/08/12 01:36:16;;;;;;;7.10;3.90;;;18.30;45.90;;;;;;5052187;28;20269;-79
2023/08/12 01:38:45;;;;;;;8.90;3.10;;;18.30;45.80;;;;;;5052785;28;20191;-82
2023/08/12 01:41:14;;;;;;;9.60;3.20;;;18.50;45.20;;;;;;5034503;28;20195;-78
2023/08/12 01:43:46;;;;;;;6.30;2.77;;;18.70;44.10;;;;;;5052682;28;20600;-84
2023/08/12 01:46:13;;;;;;;5.57;3.10;;;18.80;43.90;;;;;;5052673;28;20184;-85
2023/08/12 01:48:40;;;;;;;9.57;3.10;;;18.80;44.40;;;;;;5052896;28;20192;-80
2023/08/12 01:51:08;;;;;;;9.03;3.27;;;19.00;43.60;;;;;;5052060;28;20259;-80
2023/08/12 01:53:35;;;;;;;6.47;3.00;;;19.20;43.60;;;;;;5050325;28;20186;-78
2023/08/12 01:56:03;;;;;;;5.53;3.30;;;19.30;42.00;;;;;;5052396;28;20176;-79
2023/08/12 01:58:33;;;;;;;5.27;3.00;;;19.40;41.00;;;;;;5029832;28;20198;-81
2023/08/12 02:01:01;;;;;;;6.10;2.90;;;19.50;40.60;;;;;;5052293;28;20187;-78
2023/08/12 02:03:28;;;;;;;10.60;3.10;;;19.30;41.90;;;;;;5048766;28;20206;-77
2023/08/12 02:05:55;;;;;;;6.40;3.30;;;19.60;41.70;;;;;;5052100;28;20253;-79
2023/08/12 02:08:23;;;;;;;10.47;3.50;;;19.70;41.50;;;;;;5051232;28;20230;-80
2023/08/12 02:10:50;;;;;;;6.37;3.27;;;19.80;39.90;;;;;;5052450;28;20184;-80
2023/08/12 02:13:18;;;;;;;6.07;3.30;;;20.20;39.30;;;;;;5051845;28;20191;-78
2023/08/12 02:15:46;;;;;;;5.63;2.80;;;20.60;39.20;;;;;;5034338;28;20183;-77
2023/08/12 02:18:13;;;;;;;7.17;3.07;;;20.80;37.70;;;;;;5030885;28;20191;-79
2023/08/12 02:20:44;;;;;;;7.23;2.83;;;20.80;36.30;;;;;;5052380;28;20187;-79
2023/08/12 02:23:11;;;;;;;9.63;3.50;;;20.80;36.50;;;;;;5057413;28;20184;-80
2023/08/12 02:25:38;;;;;;;6.70;2.60;;;20.80;36.30;;;;;;5045596;28;20188;-80
2023/08/12 02:28:06;;;;;;;7.37;3.13;;;20.90;36.70;;;;;;5056279;28;20208;-78
2023/08/12 02:30:33;;;;;;;5.33;3.00;;;21.00;37.20;;;;;;5051784;28;20180;-78
2023/08/12 02:33:01;;;;;;;11.43;2.43;;;20.90;35.70;;;;;;5052781;28;20187;-81
2023/08/12 02:35:28;;;;;;;6.33;2.63;;;20.60;36.60;;;;;;5064742;28;20703;-78
2023/08/12 02:37:55;;;;;;;7.37;3.10;;;20.60;36.90;;;;;;5063294;28;20242;-80
2023/08/12 02:40:23;;;;;;;9.83;2.90;;;20.80;37.00;;;;;;5053303;28;20176;-83
2023/08/12 02:42:50;;;;;;;7.13;2.87;;;21.00;36.30;;;;;;5054549;28;20186;-78
2023/08/12 02:45:17;;;;;;;5.60;2.40;;;21.00;35.80;;;;;;5054351;28;20691;-78
2023/08/12 02:47:45;;;;;;;5.13;2.53;;;21.00;35.60;;;;;;5054679;28;20219;-79
2023/08/12 02:50:12;;;;;;;4.60;2.30;;;20.70;36.10;;;;;;5053993;28;20168;-79
2023/08/12 02:52:39;;;;;;;7.00;2.87;;;20.70;36.80;;;;;;5054533;28;20202;-79
2023/08/12 02:55:07;;;;;;;5.43;2.87;;;20.30;36.90;;;;;;5053615;28;20172;-78
2023/08/12 02:57:34;;;;;;;8.13;2.83;;;20.00;37.70;;;;;;5053090;28;20597;-79
2023/08/12 03:00:03;;;;;;;8.27;2.80;;;19.80;38.10;;;;;;5054546;28;20187;-81
2023/08/12 03:02:31;;;;;;;7.00;3.00;;;19.70;38.70;;;;;;5037894;28;20263;-80
2023/08/12 03:04:58;;;;;;;9.90;2.80;;;19.80;39.20;;;;;;5050168;28;20658;-78
2023/08/12 03:07:26;;;;;;;10.40;3.07;;;20.30;38.10;;;;;;5029677;28;20662;-79
2023/08/12 03:09:53;;;;;;;6.37;2.80;;;20.90;37.50;;;;;;5051272;28;20275;-79
2023/08/12 03:12:40;;;;;;;4.53;2.50;;;21.30;36.60;;;;;;5053067;28;20726;-77
2023/08/12 03:15:08;;;;;;;5.33;2.50;;;21.60;35.60;;;;;;5036407;28;20662;-78
2023/08/12 03:17:38;;;;;;;6.97;2.80;;;21.50;35.40;;;;;;5056162;28;20272;-76
2023/08/12 03:20:08;;;;;;;5.07;2.37;;;21.30;35.60;;;;;;5054909;28;20200;-76
2023/08/12 03:22:37;;;;;;;7.00;2.27;;;21.00;36.80;;;;;;5036912;28;20172;-77
2023/08/12 03:25:05;;;;;;;4.97;2.07;;;20.70;36.30;;;;;;5049003;28;20188;-75
2023/08/12 03:27:33;;;;;;;8.13;2.33;;;20.30;36.80;;;;;;5052766;28;20269;-78
2023/08/12 03:30:00;;;;;;;8.60;2.50;;;20.10;37.50;;;;;;5054373;28;20190;-77
2023/08/12 03:32:27;;;;;;;6.90;2.70;;;19.90;38.50;;;;;;5053650;28;20180;-77
2023/08/12 03:34:55;;;;;;;6.13;2.30;;;20.00;38.90;;;;;;5049736;28;20574;-76
2023/08/12 03:37:22;;;;;;;10.07;2.50;;;19.70;38.10;;;;;;5051284;28;20224;-78
2023/08/12 03:39:49;;;;;;;5.23;2.43;;;19.60;38.50;;;;;;5051484;28;20180;-75
2023/08/12 03:42:17;;;;;;;5.43;2.33;;;19.70;38.50;;;;;;5054236;28;20262;-76
2023/08/12 03:44:47;;;;;;;7.27;2.50;;;19.60;38.30;;;;;;5053921;28;20236;-76
2023/08/12 03:47:14;;;;;;;3.03;1.80;;;19.50;38.30;;;;;;5048910;28;20204;-77
2023/08/12 03:49:42;;;;;;;5.53;2.20;;;19.60;38.30;;;;;;5048286;28;20192;-78
2023/08/12 03:52:09;;;;;;;4.33;2.00;;;19.60;38.50;;;;;;5051761;28;20260;-77
2023/08/12 03:54:36;;;;;;;9.07;2.13;;;19.80;38.20;;;;;;5054757;28;20191;-78
2023/08/12 03:57:04;;;;;;;5.17;2.30;;;20.10;37.80;;;;;;5054101;28;20260;-78
2023/08/12 03:59:31;;;;;;;6.87;2.30;;;20.40;37.10;;;;;;5049734;28;20234;-77
2023/08/12 04:01:59;;;;;;;4.53;2.20;;;20.80;36.70;;;;;;5054325;28;20246;-78
2023/08/12 04:04:26;;;;;;;4.43;1.97;;;20.90;36.60;;;;;;5036055;28;20269;-79
2023/08/12 04:06:54;;;;;;;4.93;1.90;;;21.80;34.90;;;;;;5052332;28;20215;-77
2023/08/12 04:09:21;;;;;;;3.53;1.80;;;22.60;33.90;;;;;;5050296;28;20274;-76
2023/08/12 04:11:48;;;;;;;4.50;1.83;;;23.20;32.70;;;;;;5053333;28;20230;-80
2023/08/12 04:14:16;;;;;;;6.37;1.90;;;23.50;30.60;;;;;;5035627;28;20654;-79
2023/08/12 04:16:44;;;;;;;5.70;2.00;;;23.50;30.60;;;;;;5038389;28;20204;-79
2023/08/12 04:19:11;;;;;;;5.13;1.80;;;23.70;30.60;;;;;;5036772;28;20541;-78
2023/08/12 04:21:38;;;;;;;5.47;1.73;;;23.90;29.00;;;;;;5037531;28;20188;-79
2023/08/12 04:24:06;;;;;;;4.47;1.60;;;24.30;28.60;;;;;;5054389;28;20270;-84
2023/08/12 04:26:33;;;;;;;3.17;1.80;;;24.50;28.60;;;;;;5049008;28;20192;-77
2023/08/12 04:29:01;;;;;;;2.40;1.30;;;23.70;29.00;;;;;;5056028;28;20184;-77
2023/08/12 04:31:28;;;;;;;2.83;1.50;;;22.80;30.20;;;;;;5053495;28;20203;-79
2023/08/12 04:33:55;;;;;;;3.40;1.80;;;21.80;31.10;;;;;;5053055;28;20538;-76
2023/08/12 04:36:22;;;;;;;6.60;1.93;;;21.30;32.70;;;;;;5036683;28;20288;-77
2023/08/12 04:38:50;;;;;;;3.00;1.77;;;21.00;33.60;;;;;;5048465;28;20199;-75
2023/08/12 04:41:18;;;;;;;3.97;1.60;;;20.90;33.60;;;;;;5050937;28;20542;-76
2023/08/12 04:43:46;;;;;;;3.87;1.97;;;20.90;34.10;;;;;;5053500;28;20210;-78
2023/08/12 04:46:13;;;;;;;2.13;1.20;;;21.70;32.10;;;;;;5052469;28;20184;-76
2023/08/12 04:48:40;;;;;;;4.20;1.70;;;22.10;31.20;;;;;;5053568;28;20725;-74
2023/08/12 04:51:08;;;;;;;3.07;1.67;;;22.50;30.40;;;;;;5050047;28;20188;-75
2023/08/12 04:53:35;;;;;;;2.83;1.50;;;22.20;31.00;;;;;;5053267;28;20630;-75
2023/08/12 04:56:03;;;;;;;4.13;1.70;;;22.30;31.10;;;;;;5053260;28;20186;-79
2023/08/12 04:58:30;;;;;;;4.60;1.60;;;22.90;30.60;;;;;;5054717;28;20234;-75
2023/08/12 05:00:58;;;;;;;5.13;1.63;;;22.90;30.10;;;;;;5036912;28;20183;-76
2023/08/12 05:03:25;;;;;;;1.83;1.07;;;23.40;29.70;;;;;;5051326;28;20180;-78
2023/08/12 05:05:53;;;;;;;4.30;1.47;;;23.20;28.00;;;;;;5050820;28;20223;-75
2023/08/12 05:08:20;;;;;;;3.10;1.40;;;22.90;29.30;;;;;;5051704;28;20217;-77
2023/08/12 05:10:51;;;;;;;4.93;1.40;;;23.20;29.90;;;;;;5052571;28;20187;-76
2023/08/12 05:13:18;;;;;;;3.27;1.10;;;23.50;28.60;;;;;;5048841;28;20194;-75
2023/08/12 05:15:48;;;;;;;2.70;1.43;;;23.00;28.70;;;;;;5052581;28;20274;-73
2023/08/12 05:18:16;;;;;;;2.23;1.10;;;22.30;30.20;;;;;;5049926;28;20222;-73
2023/08/12 05:20:45;;;;;;;4.60;1.30;;;22.00;30.90;;;;;;5053105;28;20214;-76
2023/08/12 05:23:13;;;;;;;1.90;1.10;;;22.50;30.20;;;;;;5053357;28;20211;-74
2023/08/12 05:25:40;;;;;;;2.77;1.20;;;23.40;29.00;;;;;;5053748;28;20184;-73
2023/08/12 05:28:08;;;;;;;7.73;1.90;;;22.80;29.30;;;;;;5052254;28;20226;-74
2023/08/12 05:30:36;;;;;;;5.47;1.70;;;22.50;33.90;;;;;;5052357;28;20306;-75
2023/08/12 05:33:04;;;;;;;4.37;1.70;;;22.00;36.70;;;;;;5051661;28;20234;-76
2023/08/12 05:35:36;;;;;;;4.00;1.80;;;21.80;37.00;;;;;;5017981;28;20242;-74
2023/08/12 05:38:03;;;;;;;5.97;1.93;;;21.70;38.10;;;;;;5052153;28;20224;-75
2023/08/12 05:40:31;;;;;;;6.20;1.90;;;21.40;40.50;;;;;;5052669;28;20548;-75
2023/08/12 05:42:58;;;;;;;4.07;1.80;;;21.30;42.20;;;;;;5048934;28;20184;-72
2023/08/12 05:45:25;;;;;;;7.17;1.80;;;21.10;42.90;;;;;;5052640;28;20179;-77
2023/08/12 05:47:53;;;;;;;4.53;1.73;;;20.70;43.80;;;;;;5050472;28;20215;-76
2023/08/12 05:50:20;;;;;;;6.03;2.90;;;20.10;43.80;;;;;;5053108;28;20680;-77
2023/08/12 05:52:47;;;;;;;5.13;1.90;;;19.90;45.40;;;;;;5052462;28;20210;-74
2023/08/12 05:55:15;;;;;;;5.50;1.97;;;20.90;43.60;;;;;;5052120;28;20195;-75
2023/08/12 05:57:42;;;;;;;4.87;1.90;;;20.70;43.90;;;;;;5029756;28;20651;-74
2023/08/12 06:00:10;;;;;;;4.67;1.90;;;20.40;44.80;;;;;;5050775;28;20188;-74
2023/08/12 06:02:38;;;;;;;7.37;2.50;;;20.10;45.60;;;;;;5051996;28;20267;-75
2023/08/12 06:05:06;;;;;;;7.07;2.10;;;20.00;45.80;;;;;;5051747;28;20188;-75
2023/08/12 06:07:34;;;;;;;4.53;2.20;;;19.90;46.60;;;;;;5033963;28;20224;-75
2023/08/12 06:10:02;;;;;;;7.60;2.30;;;20.20;46.50;;;;;;5052145;28;20192;-74
2023/08/12 06:12:29;;;;;;;9.70;2.70;;;20.10;47.30;;;;;;5034410;28;20192;-77
2023/08/12 06:14:57;;;;;;;5.07;2.00;;;19.90;47.80;;;;;;5051809;28;20195;-74
2023/08/12 06:17:25;;;;;;;6.70;2.60;;;19.70;48.30;;;;;;5055068;28;20627;-73
2023/08/12 06:19:52;;;;;;;6.00;2.37;;;19.50;48.60;;;;;;5051892;28;20215;-75
2023/08/12 06:22:19;;;;;;;4.33;2.60;;;19.30;48.50;;;;;;5048789;28;20649;-75
2023/08/12 06:24:47;;;;;;;6.43;2.47;;;19.00;49.10;;;;;;5053635;28;20219;-76
2023/08/12 06:27:14;;;;;;;7.03;2.70;;;18.80;51.20;;;;;;5051144;28;20880;-76
2023/08/12 06:29:41;;;;;;;5.10;2.20;;;18.70;50.70;;;;;;5054377;28;20193;-76
2023/08/12 06:32:12;;;;;;;6.07;2.37;;;18.50;50.70;;;;;;5055755;28;20222;-78
2023/08/12 06:34:39;;;;;;;6.80;2.30;;;18.40;51.20;;;;;;5048103;28;20649;-76
2023/08/12 06:37:07;;;;;;;6.00;2.20;;;18.30;51.20;;;;;;5051333;28;20318;-79
2023/08/12 06:39:34;;;;;;;7.10;2.17;;;18.30;50.40;;;;;;5045880;28;20239;-76
2023/08/12 06:42:03;;;;;;;4.67;1.77;;;18.20;50.80;;;;;;5055917;28;20187;-80
2023/08/12 07:07:46;;;;;;;7.87;2.43;;;17.50;51.60;;;;;;5060203;28;20264;-65
2023/08/12 07:10:14;;;;;;;7.63;1.90;;;17.50;52.10;;;;;;5077375;28;20185;-66
2023/08/12 07:12:41;;;;;;;8.73;2.00;;;17.40;52.20;;;;;;5075720;28;20606;-68
2023/08/12 07:15:10;;;;;;;5.67;2.00;;;17.40;52.40;;;;;;5078353;28;20321;-66
2023/08/12 07:17:38;;;;;;;5.77;2.07;;;17.30;52.90;;;;;;5077007;28;20217;-68
2023/08/12 07:20:06;;;;;;;8.50;2.30;;;17.30;52.90;;;;;;5083738;28;20210;-66
2023/08/12 07:22:34;;;;;;;5.53;2.20;;;17.20;52.80;;;;;;5070066;28;20199;-66
2023/08/12 07:25:01;;;;;;;4.57;2.10;;;17.20;53.10;;;;;;5084902;28;20181;-67
2023/08/12 07:27:29;;;;;;;5.50;2.13;;;17.20;53.30;;;;;;5074249;28;20781;-66
2023/08/12 07:29:56;;;;;;;6.53;2.10;;;17.20;53.70;;;;;;5075248;28;20186;-68
2023/08/12 07:32:23;;;;;;;6.07;2.23;;;17.20;53.90;;;;;;5066062;28;20172;-70
2023/08/12 07:34:51;;;;;;;7.10;2.13;;;17.20;54.10;;;;;;5071632;28;20199;-66
2023/08/12 07:37:18;;;;;;;3.27;2.00;;;17.20;54.50;;;;;;5069391;28;20179;-68
2023/08/12 07:39:46;;;;;;;9.80;2.03;;;17.10;54.70;;;;;;5083045;28;20269;-68
2023/08/12 07:42:13;;;;;;;6.20;2.20;;;17.10;54.50;;;;;;5055975;28;20240;-67
2023/08/12 07:44:40;;;;;;;6.13;2.23;;;17.00;54.20;;;;;;5070764;28;20190;-71
2023/08/12 07:47:08;;;;;;;3.80;2.23;;;17.00;54.40;;;;;;5073349;28;20936;-67
2023/08/12 07:49:36;;;;;;;6.90;1.90;;;17.00;54.40;;;;;;5079578;28;20186;-68
2023/08/12 07:52:04;;;;;;;5.30;2.30;;;16.90;54.80;;;;;;5075986;28;20187;-66
2023/08/12 07:54:31;;;;;;;5.13;2.10;;;16.90;55.40;;;;;;5083599;28;20183;-68
2023/08/12 07:56:59;;;;;;;6.03;2.30;;;16.80;55.50;;;;;;5077345;28;20183;-72
2023/08/12 07:59:26;;;;;;;5.17;2.27;;;16.80;55.80;;;;;;5075142;28;20886;-66
2023/08/12 08:01:53;;;;;;;6.37;2.50;;;16.80;55.70;;;;;;5072169;28;20833;-66
2023/08/12 08:04:20;;;;;;;4.97;3.00;;;16.70;56.10;;;;;;5077658;28;20186;-66
2023/08/12 08:06:48;;;;;;;6.03;2.53;;;16.70;56.20;;;;;;5074903;28;20230;-66
2023/08/12 08:09:15;;;;;;;8.43;2.87;;;16.60;56.30;;;;;;5080397;28;20178;-67
2023/08/12 08:11:42;;;;;;;7.67;2.60;;;16.60;56.80;;;;;;5081174;28;20541;-68
2023/08/12 08:14:10;;;;;;;7.40;2.60;;;16.60;57.00;;;;;;5079830;28;20273;-67
2023/08/12 08:16:40;;;;;;;9.00;2.87;;;16.60;57.10;;;;;;5068651;28;20182;-65
2023/08/12 08:19:09;;;;;;;5.43;2.80;;;16.60;57.40;;;;;;5058932;28;20193;-66
2023/08/12 08:21:37;;;;;;;6.33;2.80;;;16.60;57.70;;;;;;5074338;28;20195;-66
2023/08/12 08:24:04;;;;;;;7.07;2.73;;;16.50;57.80;;;;;;5070162;28;20668;-66
2023/08/12 08:26:31;;;;;;;3.93;2.33;;;16.60;57.90;;;;;;5079312;28;20205;-66
2023/08/12 08:28:59;;;;;;;5.87;2.73;;;16.50;57.50;;;;;;5076640;28;20185;-68
2023/08/12 08:31:26;;;;;;;8.93;3.23;;;16.50;57.70;;;;;;5076944;28;20225;-66
2023/08/12 08:33:53;;;;;;;6.70;3.90;;;16.50;58.20;;;;;;5077775;28;20184;-67
2023/08/12 08:36:21;;;;;;;9.13;4.30;;;16.50;57.80;;;;;;5079708;28;20189;-67
2023/08/12 08:38:48;;;;;;;8.07;5.07;;;16.50;58.20;;;;;;5072402;28;20183;-66
2023/08/12 08:41:17;;;;;;;9.07;4.53;;;16.50;58.30;;;;;;5076215;28;20191;-69
2023/08/12 08:43:46;;;;;;;6.77;3.90;;;16.60;58.50;;;;;;5076435;28;20194;-69
2023/08/12 08:46:16;;;;;;;9.50;4.70;;;16.50;58.70;;;;;;5080039;28;20177;-66
2023/08/12 08:48:48;;;;;;;8.63;4.60;;;16.50;59.00;;;;;;5079997;28;20694;-71
2023/08/12 08:51:18;;;;;;;10.70;5.50;;;16.50;59.40;;;;;;5075261;28;20656;-67
2023/08/12 08:53:45;;;;;;;12.10;6.33;;;16.50;59.50;;;;;;5074529;28;20204;-67
2023/08/12 08:56:13;;;;;;;14.43;6.03;;;16.50;59.60;;;;;;5079159;28;20186;-68
2023/08/12 08:58:40;;;;;;;13.10;5.90;;;16.40;60.20;;;;;;5076898;28;20210;-66
2023/08/12 09:01:08;;;;;;;13.13;5.77;;;16.40;60.20;;;;;;5082052;28;20186;-67
2023/08/12 09:03:39;;;;;;;11.83;6.00;;;16.40;60.20;;;;;;5063099;28;20259;-66
2023/08/12 09:06:06;;;;;;;13.73;5.33;;;16.30;60.30;;;;;;5079686;28;20609;-66
2023/08/12 09:08:34;;;;;;;10.93;5.30;;;16.30;60.70;;;;;;5079881;28;20583;-67
2023/08/12 09:11:03;;;;;;;10.50;6.30;;;16.30;60.90;;;;;;5077398;28;20274;-68
2023/08/12 09:13:31;;;;;;;12.00;7.70;;;16.30;61.50;;;;;;5054743;28;20331;-66
2023/08/12 09:15:58;;;;;;;17.67;8.23;;;16.30;60.90;;;;;;5077241;28;20186;-65
2023/08/12 09:18:29;;;;;;;14.23;7.43;;;16.20;60.90;;;;;;5073242;28;20179;-67
2023/08/12 09:20:57;;;;;;;14.13;8.03;;;16.10;61.10;;;;;;5079129;28;20190;-66
2023/08/12 09:23:27;;;;;;;13.83;7.20;;;16.10;61.30;;;;;;5072368;28;20240;-66
2023/08/12 09:25:55;;;;;;;12.70;6.50;;;16.10;61.70;;;;;;5077521;28;20309;-66
2023/08/12 09:28:25;;;;;;;13.63;6.40;;;16.10;61.60;;;;;;5074641;28;20217;-66
2023/08/12 09:30:52;;;;;;;12.97;6.00;;;16.10;61.80;;;;;;5077014;28;20194;-66
2023/08/12 09:33:28;;;;;;;12.33;5.50;;;16.10;61.90;;;;;;5071636;28;20182;-73
2023/08/12 09:35:59;;;;;;;10.27;5.40;;;16.10;62.00;;;;;;5074030;28;20596;-73
2023/08/12 09:38:27;;;;;;;9.37;4.97;;;16.10;62.10;;;;;;5066721;28;20264;-70
2023/08/12 09:40:56;;;;;;;9.63;5.00;;;16.00;62.30;;;;;;5079126;28;20237;-73
2023/08/12 09:43:29;;;;;;;9.27;4.90;;;16.00;62.40;;;;;;5068464;28;20266;-74
2023/08/12 09:45:59;;;;;;;11.83;5.10;;;15.90;62.70;;;;;;5078149;28;20557;-66
2023/08/12 09:48:29;;;;;;;12.13;5.50;;;15.90;63.00;;;;;;5073132;28;20214;-72
2023/08/12 09:50:58;;;;;;;11.80;5.73;;;15.90;62.90;;;;;;5078985;28;20646;-70
2023/08/12 09:53:27;;;;;;;7.20;4.43;;;15.80;63.40;;;;;;5065528;28;20543;-66
2023/08/12 09:55:57;;;;;;;8.57;4.73;;;15.70;63.80;;;;;;5076582;28;20192;-68
2023/08/12 09:58:25;;;;;;;10.47;4.60;;;15.70;63.90;;;;;;5077964;28;20636;-66
2023/08/12 10:00:53;;;;;;;8.37;4.83;;;15.60;64.30;;;;;;5076755;28;20187;-67
2023/08/12 10:03:22;;;;;;;10.53;4.97;;;15.60;64.80;;;;;;5078032;28;20676;-70
2023/08/12 10:05:50;;;;;;;14.23;8.10;;;15.50;65.00;;;;;;5055269;28;20185;-69
2023/08/12 10:08:18;;;;;;;16.53;11.43;;;15.50;65.20;;;;;;5073488;28;20236;-70
2023/08/12 10:10:46;;;;;;;12.27;6.60;;;15.40;65.50;;;;;;5076321;28;20707;-65
2023/08/12 10:13:13;;;;;;;12.47;5.03;;;15.50;66.10;;;;;;5077883;28;20195;-72
2023/08/12 10:15:42;;;;;;;12.07;5.53;;;15.40;66.00;;;;;;5068429;28;20192;-72
2023/08/12 10:18:10;;;;;;;13.80;5.70;;;15.40;66.30;;;;;;5071546;28;20208;-66
2023/08/12 10:20:39;;;;;;;14.67;8.40;;;15.40;66.90;;;;;;5072308;28;20604;-66
2023/08/12 10:23:07;;;;;;;10.83;5.50;;;15.40;66.80;;;;;;5074315;28;20235;-66
2023/08/12 10:25:36;;;;;;;13.40;5.80;;;15.30;67.20;;;;;;5075453;28;20224;-68
2023/08/12 10:28:04;;;;;;;12.80;6.07;;;15.20;67.10;;;;;;5073371;28;20286;-66
2023/08/12 10:30:32;;;;;;;11.97;6.30;;;15.20;67.40;;;;;;5072919;28;20179;-65
2023/08/12 10:33:00;;;;;;;13.17;6.40;;;15.10;67.80;;;;;;5071711;28;20565;-67
2023/08/12 10:35:48;;;;;;;10.83;6.47;;;15.10;67.80;;;;;;5057274;28;20182;-66
2023/08/12 10:38:21;;;;;;;11.50;6.60;;;15.10;68.00;;;;;;5078676;28;20180;-69
2023/08/12 10:41:49;;;;;;;12.13;7.40;;;15.00;68.20;;;;;;5077131;28;20191;-70
2023/08/12 10:44:17;;;;;;;12.73;6.37;;;15.00;68.40;;;;;;5053300;28;20283;-66
2023/08/12 10:46:51;;;;;;;13.73;6.10;;;15.00;68.80;;;;;;5068675;28;20261;-65
2023/08/12 10:49:21;;;;;;;15.07;10.27;;;14.90;68.90;;;;;;5070305;28;20194;-65
2023/08/12 10:51:55;;;;;;;16.33;10.40;;;14.90;69.20;;;;;;5073397;28;20559;-65
2023/08/12 10:54:29;;;;;;;15.63;9.47;;;14.80;69.60;;;;;;5080202;28;20217;-66
2023/08/12 10:57:11;;;;;;;16.17;8.73;;;14.80;66.70;;;;;;5075422;28;20186;-67
2023/08/12 10:59:48;;;;;;;10.53;6.33;;;14.80;67.60;;;;;;5081450;28;20535;-71
2023/08/12 11:02:23;;;;;;;7.30;4.10;;;14.80;67.30;;;;;;5071046;28;20179;-66
2023/08/12 11:04:55;;;;;;;8.87;4.90;;;14.80;63.90;;;;;;5080757;28;20225;-65
2023/08/12 11:07:33;;;;;;;11.90;7.00;;;15.10;63.80;;;;;;5069920;28;20226;-67
2023/08/12 11:10:06;;;;;;;15.53;9.23;;;15.10;64.70;;;;;;5079416;28;20194;-69
2023/08/12 11:12:37;;;;;;;14.57;7.60;;;15.00;64.80;;;;;;5073843;28;20194;-71
2023/08/12 11:15:05;;;;;;;14.20;7.53;;;15.00;64.80;;;;;;5078765;28;20183;-66
2023/08/12 11:17:38;;;;;;;17.10;8.30;;;15.00;65.20;;;;;;5075489;28;20189;-66
2023/08/12 11:20:10;;;;;;;16.30;7.27;;;14.80;65.50;;;;;;5076224;28;20238;-67
2023/08/12 11:22:43;;;;;;;11.53;5.80;;;14.80;64.90;;;;;;5071635;28;20585;-71
2023/08/12 11:25:12;;;;;;;13.70;5.53;;;14.70;64.70;;;;;;5074848;28;20186;-67
2023/08/12 11:27:47;;;;;;;11.63;5.37;;;14.70;64.40;;;;;;5071640;28;20309;-67
2023/08/12 11:30:16;;;;;;;8.40;4.80;;;14.60;64.30;;;;;;5075606;28;20175;-72
2023/08/12 11:32:47;;;;;;;9.50;5.10;;;14.60;63.60;;;;;;5068621;28;20183;-69
2023/08/12 11:35:16;;;;;;;10.80;5.00;;;14.50;63.10;;;;;;5075577;28;20221;-71
2023/08/12 11:37:46;;;;;;;9.60;5.07;;;14.50;63.60;;;;;;5083051;28;20264;-69
2023/08/12 11:40:17;;;;;;;10.27;4.80;;;14.50;63.70;;;;;;5073881;28;20218;-71
2023/08/12 11:42:48;;;;;;;10.40;4.63;;;14.30;64.20;;;;;;5073557;28;20187;-67
2023/08/12 11:45:21;;;;;;;10.47;4.73;;;14.30;63.70;;;;;;5082479;28;20187;-70
2023/08/12 11:47:52;;;;;;;9.40;4.67;;;14.30;63.50;;;;;;5070049;28;20218;-72
2023/08/12 11:50:22;;;;;;;8.60;4.43;;;14.30;63.80;;;;;;5084600;28;20179;-73
2023/08/12 11:52:50;;;;;;;9.10;4.10;;;14.30;63.60;;;;;;5063366;28;20717;-71
2023/08/12 11:55:18;;;;;;;9.00;4.90;;;14.30;62.90;;;;;;5073454;28;20189;-69
2023/08/12 11:57:50;;;;;;;8.40;4.07;;;14.30;62.70;;;;;;5057357;28;20249;-74
2023/08/12 12:00:18;;;;;;;8.03;3.97;;;14.30;62.40;;;;;;5069194;28;20189;-73
2023/08/12 12:02:56;;;;;;;7.50;3.77;;;14.30;62.20;;;;;;5060256;28;20630;-74
2023/08/12 12:05:30;;;;;;;7.30;4.07;;;14.30;62.40;;;;;;5072006;28;20186;-67
2023/08/12 12:08:02;;;;;;;9.83;4.97;;;14.20;62.60;;;;;;5065031;28;20231;-69
2023/08/12 12:10:31;;;;;;;10.80;4.63;;;14.20;62.20;;;;;;5079176;28;20235;-68
2023/08/12 12:13:00;;;;;;;9.33;4.67;;;14.20;62.60;;;;;;5072434;28;20186;-69
2023/08/12 12:15:27;;;;;;;9.80;5.23;;;14.10;62.90;;;;;;5072578;28;20673;-69
2023/08/12 12:17:55;;;;;;;8.47;4.53;;;14.00;63.40;;;;;;5077287;28;20190;-67
2023/08/12 12:20:22;;;;;;;9.63;5.40;;;13.90;64.00;;;;;;5067833;28;20263;-67
2023/08/12 12:22:50;;;;;;;10.47;6.60;;;13.80;64.00;;;;;;5068622;28;20194;-70
2023/08/12 12:25:21;;;;;;;9.43;4.83;;;13.80;64.40;;;;;;5063391;28;20195;-67
2023/08/12 12:27:48;;;;;;;7.13;4.53;;;13.80;64.70;;;;;;5076841;28;20253;-69
2023/08/12 12:30:17;;;;;;;10.17;4.23;;;13.70;64.70;;;;;;5074914;28;20195;-71
2023/08/12 12:32:45;;;;;;;10.00;4.53;;;13.60;65.00;;;;;;5076106;28;20698;-67
2023/08/12 12:35:12;;;;;;;7.63;3.70;;;13.60;65.30;;;;;;5073414;28;20638;-68
2023/08/12 12:37:40;;;;;;;7.47;4.10;;;13.60;64.80;;;;;;5077765;28;20605;-70
2023/08/12 12:40:07;;;;;;;6.03;3.63;;;13.60;65.40;;;;;;5083964;28;20226;-67
2023/08/12 12:42:35;;;;;;;10.67;3.90;;;13.50;65.50;;;;;;5076303;28;20179;-72
2023/08/12 12:45:03;;;;;;;8.73;4.17;;;13.50;65.40;;;;;;5074481;28;20183;-74
2023/08/12 12:47:30;;;;;;;10.50;4.60;;;13.50;65.50;;;;;;5077068;28;20221;-68
2023/08/12 12:49:57;;;;;;;9.40;5.00;;;13.40;65.60;;;;;;5080141;28;20184;-75
2023/08/12 12:52:25;;;;;;;9.07;4.30;;;13.50;65.60;;;;;;5076502;28;20175;-67
2023/08/12 12:54:52;;;;;;;9.30;4.50;;;13.40;65.50;;;;;;5080576;28;20209;-68
2023/08/12 12:57:22;;;;;;;9.30;4.90;;;13.30;65.90;;;;;;5076661;28;20183;-68
2023/08/12 12:59:50;;;;;;;9.17;4.50;;;13.30;65.90;;;;;;5077505;28;20263;-65
2023/08/12 13:02:17;;;;;;;8.87;4.40;;;13.30;66.00;;;;;;5060594;28;20175;-66
2023/08/12 13:04:44;;;;;;;8.03;4.53;;;13.20;66.30;;;;;;5078002;28;20218;-67
2023/08/12 13:07:12;;;;;;;8.50;4.37;;;13.20;66.50;;;;;;5073398;28;20243;-66
2023/08/12 13:09:39;;;;;;;12.27;4.97;;;13.20;66.50;;;;;;5076898;28;20185;-69
2023/08/12 13:12:06;;;;;;;9.17;4.93;;;13.20;66.70;;;;;;5074879;28;20630;-67
2023/08/12 13:14:34;;;;;;;9.87;4.23;;;13.20;67.10;;;;;;5075635;28;20225;-70